sensor_id;sensor_type;location;lat;lon;timestamp;temperature;humidity
16907;DHT22;8570;52.380;4.654;2022-07-23T00:04:00;16.20;99.90
16907;DHT22;8570;52.380;4.654;2022-07-23T00:09:02;16.20;99.90
16907;DHT22;8570;52.380;4.654;2022-07-23T00:14:06;16.20;99.90
16907;DHT22;8570;52.380;4.654;2022-07-23T00:19:08;16.10;99.90
16907;DHT22;8570;52.380;4.654;2022-07-23T00:24:10;16.10;99.90
16907;DHT22;8570;52.380;4.654;2022-07-23T00:29:13;16.00;99.90
16907;DHT22;8570;52.380;4.654;2022-07-23T00:34:15;16.00;99.90
16907;DHT22;8570;52.380;4.654;2022-07-23T00:39:17;15.90;99.90
16907;DHT22;8570;52.380;4.654;2022-07-23T00:44:22;15.90;99.90
16907;DHT22;8570;52.380;4.654;2022-07-23T00:49:26;15.80;99.90
16907;DHT22;8570;52.380;4.654;2022-07-23T00:54:29;15.80;99.90
16907;DHT22;8570;52.380;4.654;2022-07-23T00:59:32;15.70;99.90
16907;DHT22;8570;52.380;4.654;2022-07-23T01:04:34;15.70;99.90
16907;DHT22;8570;52.380;4.654;2022-07-23T01:09:36;15.60;99.90
16907;DHT22;8570;52.380;4.654;2022-07-23T01:14:40;15.60;99.90
16907;DHT22;8570;52.380;4.654;2022-07-23T01:19:42;15.60;99.90
16907;DHT22;8570;52.380;4.654;2022-07-23T01:24:46;15.50;99.90
16907;DHT22;8570;52.380;4.654;2022-07-23T01:29:48;15.50;99.90
16907;DHT22;8570;52.380;4.654;2022-07-23T01:34:50;15.40;99.90
16907;DHT22;8570;52.380;4.654;2022-07-23T01:39:53;15.40;99.90
16907;DHT22;8570;52.380;4.654;2022-07-23T01:44:55;15.30;99.90
16907;DHT22;8570;52.380;4.654;2022-07-23T01:49:57;15.30;99.90
16907;DHT22;8570;52.380;4.654;2022-07-23T01:55:00;15.30;99.90
16907;DHT22;8570;52.380;4.654;2022-07-23T02:00:02;15.20;99.90
16907;DHT22;8570;52.380;4.654;2022-07-23T02:05:05;15.20;99.90
16907;DHT22;8570;52.380;4.654;2022-07-23T02:10:09;15.20;99.90
16907;DHT22;8570;52.380;4.654;2022-07-23T02:15:11;15.10;99.90
16907;DHT22;8570;52.380;4.654;2022-07-23T02:20:13;15.10;99.90
16907;DHT22;8570;52.380;4.654;2022-07-23T02:25:16;15.10;99.90
16907;DHT22;8570;52.380;4.654;2022-07-23T02:30:18;15.00;99.90
16907;DHT22;8570;52.380;4.654;2022-07-23T02:35:20;15.00;99.90
16907;DHT22;8570;52.380;4.654;2022-07-23T02:40:23;14.90;99.90
16907;DHT22;8570;52.380;4.654;2022-07-23T02:45:25;14.90;99.90
16907;DHT22;8570;52.380;4.654;2022-07-23T02:50:27;14.90;99.90
16907;DHT22;8570;52.380;4.654;2022-07-23T02:55:30;14.80;99.90
16907;DHT22;8570;52.380;4.654;2022-07-23T03:00:32;14.80;99.90
16907;DHT22;8570;52.380;4.654;2022-07-23T03:05:34;14.80;99.90
16907;DHT22;8570;52.380;4.654;2022-07-23T03:10:37;14.80;99.90
16907;DHT22;8570;52.380;4.654;2022-07-23T03:15:39;14.70;99.90
16907;DHT22;8570;52.380;4.654;2022-07-23T03:20:41;14.70;99.90
16907;DHT22;8570;52.380;4.654;2022-07-23T03:25:44;14.60;99.90
16907;DHT22;8570;52.380;4.654;2022-07-23T03:30:47;14.60;99.90
16907;DHT22;8570;52.380;4.654;2022-07-23T03:35:50;14.60;99.90
16907;DHT22;8570;52.380;4.654;2022-07-23T03:40:53;14.60;99.90
16907;DHT22;8570;52.380;4.654;2022-07-23T03:45:55;14.50;99.90
16907;DHT22;8570;52.380;4.654;2022-07-23T03:50:57;14.50;99.90
16907;DHT22;8570;52.380;4.654;2022-07-23T03:56:00;14.50;99.90
16907;DHT22;8570;52.380;4.654;2022-07-23T04:01:02;14.50;99.90
16907;DHT22;8570;52.380;4.654;2022-07-23T04:06:04;14.50;99.90
16907;DHT22;8570;52.380;4.654;2022-07-23T04:11:08;14.40;99.90
16907;DHT22;8570;52.380;4.654;2022-07-23T04:16:10;14.40;99.90
16907;DHT22;8570;52.380;4.654;2022-07-23T04:21:13;14.40;99.90
16907;DHT22;8570;52.380;4.654;2022-07-23T04:26:16;14.40;99.90
16907;DHT22;8570;52.380;4.654;2022-07-23T04:31:18;14.40;99.90
16907;DHT22;8570;52.380;4.654;2022-07-23T04:36:20;14.50;99.90
16907;DHT22;8570;52.380;4.654;2022-07-23T04:41:23;14.50;99.90
16907;DHT22;8570;52.380;4.654;2022-07-23T04:46:25;14.50;99.90
16907;DHT22;8570;52.380;4.654;2022-07-23T04:51:27;14.60;99.90
16907;DHT22;8570;52.380;4.654;2022-07-23T04:56:30;14.60;99.90
16907;DHT22;8570;52.380;4.654;2022-07-23T05:01:32;14.70;99.90
16907;DHT22;8570;52.380;4.654;2022-07-23T05:06:34;14.70;99.90
16907;DHT22;8570;52.380;4.654;2022-07-23T05:11:37;14.80;99.90
16907;DHT22;8570;52.380;4.654;2022-07-23T05:16:39;14.80;99.90
16907;DHT22;8570;52.380;4.654;2022-07-23T05:21:41;14.80;99.90
16907;DHT22;8570;52.380;4.654;2022-07-23T05:26:44;14.90;99.90
16907;DHT22;8570;52.380;4.654;2022-07-23T05:31:47;14.90;99.90
16907;DHT22;8570;52.380;4.654;2022-07-23T05:36:49;15.00;99.90
16907;DHT22;8570;52.380;4.654;2022-07-23T05:41:53;15.00;99.90
16907;DHT22;8570;52.380;4.654;2022-07-23T05:46:54;15.10;99.90
16907;DHT22;8570;52.380;4.654;2022-07-23T05:51:56;15.20;99.90
16907;DHT22;8570;52.380;4.654;2022-07-23T05:56:59;15.20;99.90
16907;DHT22;8570;52.380;4.654;2022-07-23T06:02:01;15.40;99.90
16907;DHT22;8570;52.380;4.654;2022-07-23T06:07:06;15.50;99.90
16907;DHT22;8570;52.380;4.654;2022-07-23T06:12:09;15.70;99.90
16907;DHT22;8570;52.380;4.654;2022-07-23T06:17:11;15.80;99.90
16907;DHT22;8570;52.380;4.654;2022-07-23T06:22:13;16.00;99.90
16907;DHT22;8570;52.380;4.654;2022-07-23T06:27:17;16.20;99.90
16907;DHT22;8570;52.380;4.654;2022-07-23T06:32:19;16.30;99.90
16907;DHT22;8570;52.380;4.654;2022-07-23T06:37:21;16.40;99.90
16907;DHT22;8570;52.380;4.654;2022-07-23T06:42:24;16.50;99.90
16907;DHT22;8570;52.380;4.654;2022-07-23T06:47:26;16.60;99.90
16907;DHT22;8570;52.380;4.654;2022-07-23T06:52:29;16.60;99.90
16907;DHT22;8570;52.380;4.654;2022-07-23T06:57:32;16.60;99.90
16907;DHT22;8570;52.380;4.654;2022-07-23T07:02:34;16.70;99.90
16907;DHT22;8570;52.380;4.654;2022-07-23T07:07:36;16.70;99.90
16907;DHT22;8570;52.380;4.654;2022-07-23T07:12:39;16.80;99.90
16907;DHT22;8570;52.380;4.654;2022-07-23T07:17:41;16.80;99.90
16907;DHT22;8570;52.380;4.654;2022-07-23T07:22:44;16.80;99.90
16907;DHT22;8570;52.380;4.654;2022-07-23T07:27:47;16.90;99.90
16907;DHT22;8570;52.380;4.654;2022-07-23T07:32:49;16.90;99.90
16907;DHT22;8570;52.380;4.654;2022-07-23T07:37:51;17.00;99.90
16907;DHT22;8570;52.380;4.654;2022-07-23T07:42:54;17.10;99.90
16907;DHT22;8570;52.380;4.654;2022-07-23T07:47:58;17.20;99.90
16907;DHT22;8570;52.380;4.654;2022-07-23T07:53:00;17.30;99.90
16907;DHT22;8570;52.380;4.654;2022-07-23T07:58:03;17.40;99.90
16907;DHT22;8570;52.380;4.654;2022-07-23T08:03:06;17.50;99.90
16907;DHT22;8570;52.380;4.654;2022-07-23T08:08:07;17.60;99.90
16907;DHT22;8570;52.380;4.654;2022-07-23T08:13:16;17.70;99.90
16907;DHT22;8570;52.380;4.654;2022-07-23T08:18:18;17.80;99.90
16907;DHT22;8570;52.380;4.654;2022-07-23T08:23:20;18.00;99.90
16907;DHT22;8570;52.380;4.654;2022-07-23T08:28:23;18.30;99.90
16907;DHT22;8570;52.380;4.654;2022-07-23T08:33:26;18.70;99.90
16907;DHT22;8570;52.380;4.654;2022-07-23T08:38:27;19.10;99.90
16907;DHT22;8570;52.380;4.654;2022-07-23T08:43:32;19.50;99.90
16907;DHT22;8570;52.380;4.654;2022-07-23T08:48:35;19.90;99.90
16907;DHT22;8570;52.380;4.654;2022-07-23T08:53:37;20.40;99.90
16907;DHT22;8570;52.380;4.654;2022-07-23T08:58:42;20.80;99.90
16907;DHT22;8570;52.380;4.654;2022-07-23T09:03:44;21.10;99.90
16907;DHT22;8570;52.380;4.654;2022-07-23T09:08:46;21.30;99.90
16907;DHT22;8570;52.380;4.654;2022-07-23T09:13:50;21.70;99.90
16907;DHT22;8570;52.380;4.654;2022-07-23T09:18:54;22.00;99.90
16907;DHT22;8570;52.380;4.654;2022-07-23T09:23:59;22.20;99.90
16907;DHT22;8570;52.380;4.654;2022-07-23T09:29:08;22.30;99.90
16907;DHT22;8570;52.380;4.654;2022-07-23T09:34:19;22.50;99.50
16907;DHT22;8570;52.380;4.654;2022-07-23T09:39:27;22.80;99.90
16907;DHT22;8570;52.380;4.654;2022-07-23T09:44:40;23.00;97.60
16907;DHT22;8570;52.380;4.654;2022-07-23T09:49:57;23.20;97.90
16907;DHT22;8570;52.380;4.654;2022-07-23T09:55:01;23.50;97.30
16907;DHT22;8570;52.380;4.654;2022-07-23T10:00:06;23.70;97.90
16907;DHT22;8570;52.380;4.654;2022-07-23T10:05:09;24.00;98.20
16907;DHT22;8570;52.380;4.654;2022-07-23T10:10:12;24.30;97.20
16907;DHT22;8570;52.380;4.654;2022-07-23T10:15:16;24.60;96.90
16907;DHT22;8570;52.380;4.654;2022-07-23T10:20:19;24.80;95.80
16907;DHT22;8570;52.380;4.654;2022-07-23T10:25:26;24.90;95.50
16907;DHT22;8570;52.380;4.654;2022-07-23T10:30:39;24.90;94.20
16907;DHT22;8570;52.380;4.654;2022-07-23T10:35:47;24.90;94.30
16907;DHT22;8570;52.380;4.654;2022-07-23T10:40:54;25.10;94.70
16907;DHT22;8570;52.380;4.654;2022-07-23T10:46:21;25.30;94.30
16907;DHT22;8570;52.380;4.654;2022-07-23T10:51:24;25.40;94.00
16907;DHT22;8570;52.380;4.654;2022-07-23T10:56:50;25.50;93.80
16907;DHT22;8570;52.380;4.654;2022-07-23T11:02:22;25.50;93.90
16907;DHT22;8570;52.380;4.654;2022-07-23T11:07:24;25.70;93.80
16907;DHT22;8570;52.380;4.654;2022-07-23T11:12:33;25.70;92.50
16907;DHT22;8570;52.380;4.654;2022-07-23T11:17:39;25.50;92.00
16907;DHT22;8570;52.380;4.654;2022-07-23T11:23:00;25.40;91.30
16907;DHT22;8570;52.380;4.654;2022-07-23T11:28:14;25.60;91.20
16907;DHT22;8570;52.380;4.654;2022-07-23T11:33:20;25.70;90.80
16907;DHT22;8570;52.380;4.654;2022-07-23T11:38:23;25.80;91.10
16907;DHT22;8570;52.380;4.654;2022-07-23T11:43:25;25.90;90.60
16907;DHT22;8570;52.380;4.654;2022-07-23T11:48:29;26.00;90.70
16907;DHT22;8570;52.380;4.654;2022-07-23T11:53:33;26.20;90.90
16907;DHT22;8570;52.380;4.654;2022-07-23T11:58:35;26.40;90.10
16907;DHT22;8570;52.380;4.654;2022-07-23T12:03:48;26.40;88.50
16907;DHT22;8570;52.380;4.654;2022-07-23T12:08:50;26.50;89.90
16907;DHT22;8570;52.380;4.654;2022-07-23T12:13:56;26.60;89.10
16907;DHT22;8570;52.380;4.654;2022-07-23T12:18:59;26.70;90.50
16907;DHT22;8570;52.380;4.654;2022-07-23T12:24:06;27.00;89.30
16907;DHT22;8570;52.380;4.654;2022-07-23T12:29:08;27.10;87.40
16907;DHT22;8570;52.380;4.654;2022-07-23T12:34:15;27.20;88.70
16907;DHT22;8570;52.380;4.654;2022-07-23T12:39:29;27.40;87.90
16907;DHT22;8570;52.380;4.654;2022-07-23T12:44:31;27.40;85.60
16907;DHT22;8570;52.380;4.654;2022-07-23T12:49:36;27.40;88.00
16907;DHT22;8570;52.380;4.654;2022-07-23T12:54:38;27.60;85.70
16907;DHT22;8570;52.380;4.654;2022-07-23T12:59:40;27.70;85.40
16907;DHT22;8570;52.380;4.654;2022-07-23T13:04:43;27.80;85.10
16907;DHT22;8570;52.380;4.654;2022-07-23T13:09:45;27.80;85.30
16907;DHT22;8570;52.380;4.654;2022-07-23T13:14:46;27.80;84.50
16907;DHT22;8570;52.380;4.654;2022-07-23T13:19:50;28.00;85.30
16907;DHT22;8570;52.380;4.654;2022-07-23T13:24:51;28.10;84.60
16907;DHT22;8570;52.380;4.654;2022-07-23T13:29:53;28.20;84.00
16907;DHT22;8570;52.380;4.654;2022-07-23T13:34:57;28.30;82.70
16907;DHT22;8570;52.380;4.654;2022-07-23T13:39:58;28.20;82.50
16907;DHT22;8570;52.380;4.654;2022-07-23T13:45:00;28.20;83.60
16907;DHT22;8570;52.380;4.654;2022-07-23T13:50:04;28.20;83.10
16907;DHT22;8570;52.380;4.654;2022-07-23T13:55:07;28.10;84.90
16907;DHT22;8570;52.380;4.654;2022-07-23T14:00:10;28.00;84.00
16907;DHT22;8570;52.380;4.654;2022-07-23T14:05:13;27.90;84.20
16907;DHT22;8570;52.380;4.654;2022-07-23T14:10:16;27.80;84.80
16907;DHT22;8570;52.380;4.654;2022-07-23T14:15:19;27.80;85.30
16907;DHT22;8570;52.380;4.654;2022-07-23T14:20:22;27.70;84.50
16907;DHT22;8570;52.380;4.654;2022-07-23T14:25:24;27.50;85.20
16907;DHT22;8570;52.380;4.654;2022-07-23T14:30:26;27.50;85.10
16907;DHT22;8570;52.380;4.654;2022-07-23T14:35:29;27.50;85.70
16907;DHT22;8570;52.380;4.654;2022-07-23T14:40:31;27.50;86.00
16907;DHT22;8570;52.380;4.654;2022-07-23T14:45:33;27.40;86.20
16907;DHT22;8570;52.380;4.654;2022-07-23T14:50:36;27.30;85.90
16907;DHT22;8570;52.380;4.654;2022-07-23T14:55:38;27.20;85.80
16907;DHT22;8570;52.380;4.654;2022-07-23T15:00:40;27.10;85.80
16907;DHT22;8570;52.380;4.654;2022-07-23T15:05:44;26.90;86.90
16907;DHT22;8570;52.380;4.654;2022-07-23T15:10:46;26.90;87.00
16907;DHT22;8570;52.380;4.654;2022-07-23T15:15:47;26.90;86.30
16907;DHT22;8570;52.380;4.654;2022-07-23T15:20:51;26.90;87.60
16907;DHT22;8570;52.380;4.654;2022-07-23T15:25:53;26.80;86.40
16907;DHT22;8570;52.380;4.654;2022-07-23T15:30:56;26.70;88.00
16907;DHT22;8570;52.380;4.654;2022-07-23T15:35:59;26.70;87.50
16907;DHT22;8570;52.380;4.654;2022-07-23T15:41:01;26.70;87.70
16907;DHT22;8570;52.380;4.654;2022-07-23T15:46:04;26.70;88.50
16907;DHT22;8570;52.380;4.654;2022-07-23T15:51:08;26.70;87.80
16907;DHT22;8570;52.380;4.654;2022-07-23T15:56:10;26.80;88.20
16907;DHT22;8570;52.380;4.654;2022-07-23T16:01:12;26.70;88.30
16907;DHT22;8570;52.380;4.654;2022-07-23T16:06:15;26.70;87.60
16907;DHT22;8570;52.380;4.654;2022-07-23T16:11:17;26.60;87.30
16907;DHT22;8570;52.380;4.654;2022-07-23T16:16:19;26.50;87.50
16907;DHT22;8570;52.380;4.654;2022-07-23T16:21:24;26.50;88.20
16907;DHT22;8570;52.380;4.654;2022-07-23T16:26:26;26.50;89.10
16907;DHT22;8570;52.380;4.654;2022-07-23T16:31:28;26.50;88.90
16907;DHT22;8570;52.380;4.654;2022-07-23T16:36:32;26.50;88.30
16907;DHT22;8570;52.380;4.654;2022-07-23T16:41:35;26.30;88.50
16907;DHT22;8570;52.380;4.654;2022-07-23T16:46:37;26.10;88.20
16907;DHT22;8570;52.380;4.654;2022-07-23T16:51:40;26.00;88.90
16907;DHT22;8570;52.380;4.654;2022-07-23T16:56:42;25.80;88.90
16907;DHT22;8570;52.380;4.654;2022-07-23T17:01:44;25.70;89.10
16907;DHT22;8570;52.380;4.654;2022-07-23T17:06:48;25.50;89.10
16907;DHT22;8570;52.380;4.654;2022-07-23T17:11:50;25.50;89.40
16907;DHT22;8570;52.380;4.654;2022-07-23T17:16:51;25.40;89.40
16907;DHT22;8570;52.380;4.654;2022-07-23T17:21:55;25.30;90.10
16907;DHT22;8570;52.380;4.654;2022-07-23T17:26:57;25.30;90.00
16907;DHT22;8570;52.380;4.654;2022-07-23T17:31:58;25.30;89.70
16907;DHT22;8570;52.380;4.654;2022-07-23T17:37:02;25.10;89.30
16907;DHT22;8570;52.380;4.654;2022-07-23T17:42:04;25.00;89.50
16907;DHT22;8570;52.380;4.654;2022-07-23T17:47:08;24.90;90.10
16907;DHT22;8570;52.380;4.654;2022-07-23T17:52:11;24.80;90.00
16907;DHT22;8570;52.380;4.654;2022-07-23T17:57:13;24.70;89.90
16907;DHT22;8570;52.380;4.654;2022-07-23T18:02:15;24.60;90.00
16907;DHT22;8570;52.380;4.654;2022-07-23T18:07:18;24.40;90.40
16907;DHT22;8570;52.380;4.654;2022-07-23T18:12:20;24.30;90.50
16907;DHT22;8570;52.380;4.654;2022-07-23T18:17:21;24.20;90.80
16907;DHT22;8570;52.380;4.654;2022-07-23T18:22:25;24.10;90.80
16907;DHT22;8570;52.380;4.654;2022-07-23T18:27:27;24.00;91.20
16907;DHT22;8570;52.380;4.654;2022-07-23T18:32:31;24.10;91.30
16907;DHT22;8570;52.380;4.654;2022-07-23T18:37:34;24.10;91.10
16907;DHT22;8570;52.380;4.654;2022-07-23T18:42:39;24.00;91.20
16907;DHT22;8570;52.380;4.654;2022-07-23T18:47:41;24.00;91.30
16907;DHT22;8570;52.380;4.654;2022-07-23T18:52:44;23.90;91.30
16907;DHT22;8570;52.380;4.654;2022-07-23T18:57:46;23.80;91.50
16907;DHT22;8570;52.380;4.654;2022-07-23T19:02:48;23.70;91.70
16907;DHT22;8570;52.380;4.654;2022-07-23T19:07:52;23.60;91.70
16907;DHT22;8570;52.380;4.654;2022-07-23T19:12:55;23.50;91.90
16907;DHT22;8570;52.380;4.654;2022-07-23T19:17:57;23.40;92.00
16907;DHT22;8570;52.380;4.654;2022-07-23T19:23:00;23.40;92.00
16907;DHT22;8570;52.380;4.654;2022-07-23T19:28:03;23.30;92.10
16907;DHT22;8570;52.380;4.654;2022-07-23T19:33:05;23.30;92.30
16907;DHT22;8570;52.380;4.654;2022-07-23T19:38:08;23.20;92.30
16907;DHT22;8570;52.380;4.654;2022-07-23T19:43:10;23.10;92.50
16907;DHT22;8570;52.380;4.654;2022-07-23T19:48:12;23.00;92.60
16907;DHT22;8570;52.380;4.654;2022-07-23T19:53:15;23.00;92.70
16907;DHT22;8570;52.380;4.654;2022-07-23T19:58:17;22.90;92.80
16907;DHT22;8570;52.380;4.654;2022-07-23T20:03:19;22.90;92.90
16907;DHT22;8570;52.380;4.654;2022-07-23T20:08:22;22.80;93.00
16907;DHT22;8570;52.380;4.654;2022-07-23T20:13:27;22.80;93.10
16907;DHT22;8570;52.380;4.654;2022-07-23T20:18:30;22.70;93.20
16907;DHT22;8570;52.380;4.654;2022-07-23T20:23:33;22.70;93.40
16907;DHT22;8570;52.380;4.654;2022-07-23T20:28:35;22.60;93.50
16907;DHT22;8570;52.380;4.654;2022-07-23T20:33:37;22.60;93.60
16907;DHT22;8570;52.380;4.654;2022-07-23T20:38:40;22.50;93.80
16907;DHT22;8570;52.380;4.654;2022-07-23T20:43:42;22.50;93.90
16907;DHT22;8570;52.380;4.654;2022-07-23T20:48:44;22.40;94.00
16907;DHT22;8570;52.380;4.654;2022-07-23T20:53:48;22.30;94.10
16907;DHT22;8570;52.380;4.654;2022-07-23T20:58:49;22.30;94.30
16907;DHT22;8570;52.380;4.654;2022-07-23T21:03:52;22.20;94.60
16907;DHT22;8570;52.380;4.654;2022-07-23T21:08:56;22.10;94.70
16907;DHT22;8570;52.380;4.654;2022-07-23T21:13:57;22.00;95.30
16907;DHT22;8570;52.380;4.654;2022-07-23T21:18:59;22.00;95.50
16907;DHT22;8570;52.380;4.654;2022-07-23T21:24:03;21.90;95.20
16907;DHT22;8570;52.380;4.654;2022-07-23T21:29:06;21.80;95.70
16907;DHT22;8570;52.380;4.654;2022-07-23T21:34:08;21.80;95.50
16907;DHT22;8570;52.380;4.654;2022-07-23T21:39:11;21.70;96.00
16907;DHT22;8570;52.380;4.654;2022-07-23T21:44:13;21.70;95.80
16907;DHT22;8570;52.380;4.654;2022-07-23T21:49:15;21.70;95.90
16907;DHT22;8570;52.380;4.654;2022-07-23T21:54:18;21.60;95.90
16907;DHT22;8570;52.380;4.654;2022-07-23T21:59:20;21.60;96.00
16907;DHT22;8570;52.380;4.654;2022-07-23T22:04:22;21.50;96.10
16907;DHT22;8570;52.380;4.654;2022-07-23T22:09:25;21.50;96.20
16907;DHT22;8570;52.380;4.654;2022-07-23T22:14:27;21.40;96.40
16907;DHT22;8570;52.380;4.654;2022-07-23T22:19:29;21.30;96.50
16907;DHT22;8570;52.380;4.654;2022-07-23T22:24:33;21.30;96.80
16907;DHT22;8570;52.380;4.654;2022-07-23T22:29:35;21.10;96.90
16907;DHT22;8570;52.380;4.654;2022-07-23T22:34:37;21.00;97.00
16907;DHT22;8570;52.380;4.654;2022-07-23T22:39:40;21.00;97.30
16907;DHT22;8570;52.380;4.654;2022-07-23T22:44:42;20.90;97.40
16907;DHT22;8570;52.380;4.654;2022-07-23T22:49:44;20.90;97.60
16907;DHT22;8570;52.380;4.654;2022-07-23T22:54:47;20.80;98.00
16907;DHT22;8570;52.380;4.654;2022-07-23T22:59:49;20.80;98.10
16907;DHT22;8570;52.380;4.654;2022-07-23T23:04:51;20.70;98.40
16907;DHT22;8570;52.380;4.654;2022-07-23T23:09:54;20.70;98.50
16907;DHT22;8570;52.380;4.654;2022-07-23T23:14:56;20.60;98.70
16907;DHT22;8570;52.380;4.654;2022-07-23T23:19:58;20.60;98.70
16907;DHT22;8570;52.380;4.654;2022-07-23T23:25:02;20.50;98.80
16907;DHT22;8570;52.380;4.654;2022-07-23T23:30:05;20.50;99.00
16907;DHT22;8570;52.380;4.654;2022-07-23T23:35:08;20.40;99.10
16907;DHT22;8570;52.380;4.654;2022-07-23T23:40:11;20.40;99.20
16907;DHT22;8570;52.380;4.654;2022-07-23T23:45:13;20.40;99.30
16907;DHT22;8570;52.380;4.654;2022-07-23T23:50:15;20.30;99.40
16907;DHT22;8570;52.380;4.654;2022-07-23T23:55:18;20.20;99.60
